Chisolm, Alabama
Current Conditions -  °F | °C
As of 9:58 AM on Saturday 20 Dec 2014 (Local Time) from KMXF Reporting Station
Overcast Overcast  
Wind Chill: 45°   Ceiling: 700
Heat Index: 48°   Visibility: 10mi
Dew Point: 46°   Wind: 7mph
Humidity: 92%   Direction: 50°NE
Pressure: 30.21"   Gusts: NA
Location:  32.4418°N, 86.254°W
Report Text: KMXF 201558Z AUTO 05006KT 10SM OVC007 09/08 A3021 RMK AO2 OVC V BKN SLP233 T00880075
Loading
Personal Weather Stations






























Interactive Weather Map New forecast layout! Learn more

10-Day Weather Forecast

Advertisements
Track Severe Weather on mobile